Darstellungsparameter: Aktuell verwendete Einstellungen:
Skalierung der Graphiken ... ?
xyx+y,   Skalierungsfaktor:      Skalierung: Modus: x, Faktor: 1
Darstellungszeitraum ... ?
Vom - - bis: - -   Zeitraum: 26.07.2021 - 26.07.2021
Min/Max/Avg-Anzeige ... ?
Zeige MMA aktuell
Zeige MMA Monat
Zeige MMA alles
Zeige --A aktuell
Zeige --A Monat
Zeige --A alles
Keine MMA-Anzeige
MMA:
Average (ber die Originaldaten)
MMA-Basis: 26.07.2021 - 26.07.2021
Quicknavigation für Darstellung... ?
Tage:      1T, 2T, 3T, 5T -1T -2T -3T -5T +1T +2T +3T +5T
Wochen: 1W, 2W, 3W -1W -2W -3W +1W +2W +3W
Monate: 1M, 3M, 6M -1M -3M -6M +1M +3M +6M
Jahre:    1J, 3J, 5J, 10J -1J -3J -5J -10J +1J +3J +5J +10J
Nutze für die Darstellung ... ?
Originaldaten oder Mittelwerte auf ...
Stundenbasis Tagesbasis Wochenbasis
Monatsbasis Jahresbasis      Datenbasis: Original-Daten
Darstellen als:
Statistik (Auto) Statistik J:M      Darstellung:
Zur Graphik,    zurück zur Übersicht aller Sensoren.
 
Tabellarische Datenbersicht: ?
 
Sensor: Nr:Datum:Temp:Abs-Feuchte:Windchill:Wind:
Aussen-T/F 1 26-07-2021 00:00:00 16.7 C 13.36 g/m*3 16.7 C 0 km/h
2 26-07-2021 00:05:00 16.6 C 13.28 g/m*3 16.6 C 0 km/h
3 26-07-2021 00:10:00 16.6 C 13.28 g/m*3 16.6 C 0 km/h
4 26-07-2021 00:15:00 16.5 C 13.34 g/m*3 16.5 C 0 km/h
5 26-07-2021 00:20:00 16.4 C 13.26 g/m*3 16.4 C 0 km/h
6 26-07-2021 00:25:00 16.4 C 13.26 g/m*3 16.4 C 0 km/h
7 26-07-2021 00:30:00 16.3 C 13.18 g/m*3 16.3 C 0 km/h
8 26-07-2021 00:35:00 16.3 C 13.18 g/m*3 16.3 C 0 km/h
9 26-07-2021 00:40:00 16.3 C 13.18 g/m*3 16.3 C 0 km/h
10 26-07-2021 00:45:00 16.2 C 13.1 g/m*3 16.2 C 0 km/h
11 26-07-2021 00:50:00 16.2 C 13.1 g/m*3 16.2 C 0 km/h
12 26-07-2021 00:55:00 16.1 C 13.02 g/m*3 16.1 C 0 km/h
13 26-07-2021 01:00:00 16 C 12.94 g/m*3 16 C 0 km/h
14 26-07-2021 01:05:00 15.9 C 12.87 g/m*3 15.9 C 0 km/h
15 26-07-2021 01:10:00 15.9 C 12.87 g/m*3 15.9 C 0 km/h
16 26-07-2021 01:15:00 15.9 C 12.87 g/m*3 15.9 C 0 km/h
17 26-07-2021 01:20:00 15.8 C 12.79 g/m*3 15.8 C 0 km/h
18 26-07-2021 01:25:00 15.8 C 12.79 g/m*3 15.8 C 0 km/h
19 26-07-2021 01:30:00 15.8 C 12.79 g/m*3 15.8 C 0 km/h
20 26-07-2021 01:35:00 15.8 C 12.79 g/m*3 15.8 C 0 km/h
21 26-07-2021 01:40:00 15.8 C 12.79 g/m*3 15.8 C 0 km/h
22 26-07-2021 01:45:00 15.7 C 12.71 g/m*3 15.7 C 0 km/h
23 26-07-2021 01:50:00 15.7 C 12.84 g/m*3 15.7 C 0 km/h
24 26-07-2021 01:55:00 15.7 C 12.71 g/m*3 15.7 C 0 km/h
25 26-07-2021 02:00:00 15.6 C 12.63 g/m*3 15.6 C 0 km/h
Sensor: Nr:Datum:Temp:Abs-Feuchte:Windchill:Wind:
Aussen-T/F 26 26-07-2021 02:05:00 15.6 C 12.63 g/m*3 15.6 C 0 km/h
27 26-07-2021 02:10:00 15.6 C 12.77 g/m*3 15.6 C 0 km/h
28 26-07-2021 02:15:00 15.6 C 12.77 g/m*3 15.6 C 0 km/h
29 26-07-2021 02:20:00 15.7 C 12.84 g/m*3 15.7 C 0 km/h
30 26-07-2021 02:25:00 15.8 C 12.92 g/m*3 15.8 C 0 km/h
31 26-07-2021 02:30:00 15.8 C 12.92 g/m*3 15.8 C 0 km/h
32 26-07-2021 02:35:00 15.8 C 12.92 g/m*3 15.8 C 0 km/h
33 26-07-2021 02:40:00 15.7 C 12.84 g/m*3 15.7 C 0 km/h
34 26-07-2021 02:45:00 15.7 C 12.84 g/m*3 15.7 C 0 km/h
35 26-07-2021 02:50:00 15.6 C 12.77 g/m*3 15.6 C 0 km/h
36 26-07-2021 02:55:00 15.5 C 12.69 g/m*3 15.5 C 0 km/h
37 26-07-2021 03:00:00 15.4 C 12.61 g/m*3 15.4 C 0 km/h
38 26-07-2021 03:05:00 15.4 C 12.61 g/m*3 15.4 C 0 km/h
39 26-07-2021 03:10:00 15.4 C 12.61 g/m*3 15.4 C 0 km/h
40 26-07-2021 03:15:00 15.4 C 12.61 g/m*3 15.4 C 0 km/h
41 26-07-2021 03:20:00 15.4 C 12.61 g/m*3 15.4 C 0 km/h
42 26-07-2021 03:25:00 15.4 C 12.61 g/m*3 15.4 C 0 km/h
43 26-07-2021 03:30:00 15.4 C 12.61 g/m*3 15.4 C 0 km/h
44 26-07-2021 03:35:00 15.4 C 12.61 g/m*3 15.4 C 0 km/h
45 26-07-2021 03:40:00 15.4 C 12.61 g/m*3 15.4 C 0 km/h
46 26-07-2021 03:45:00 15.3 C 12.54 g/m*3 15.3 C 0 km/h
47 26-07-2021 03:50:00 15.3 C 12.54 g/m*3 15.3 C 0 km/h
48 26-07-2021 03:55:00 15.2 C 12.46 g/m*3 15.2 C 0 km/h
49 26-07-2021 04:00:00 15.2 C 12.46 g/m*3 15.2 C 1.6 km/h
50 26-07-2021 04:05:00 15.2 C 12.46 g/m*3 15.2 C 0 km/h
Sensor: Nr:Datum:Temp:Abs-Feuchte:Windchill:Wind:
Aussen-T/F 51 26-07-2021 04:10:00 15.2 C 12.46 g/m*3 15.2 C 0 km/h
52 26-07-2021 04:15:00 15.2 C 12.46 g/m*3 15.2 C 0 km/h
53 26-07-2021 04:20:00 15.1 C 12.39 g/m*3 15.1 C 0 km/h
54 26-07-2021 04:25:00 15.1 C 12.39 g/m*3 15.1 C 0 km/h
55 26-07-2021 04:30:00 15 C 12.31 g/m*3 15 C 0 km/h
56 26-07-2021 04:35:00 15 C 12.31 g/m*3 15 C 0 km/h
57 26-07-2021 04:40:00 15.1 C 12.39 g/m*3 15.1 C 0 km/h
58 26-07-2021 04:45:00 15.1 C 12.39 g/m*3 15.1 C 0 km/h
59 26-07-2021 04:50:00 15.1 C 12.39 g/m*3 15.1 C 0 km/h
60 26-07-2021 04:55:00 15.2 C 12.59 g/m*3 15.2 C 0 km/h
61 26-07-2021 05:00:00 15.3 C 12.67 g/m*3 15.3 C 0 km/h
62 26-07-2021 05:05:00 15.3 C 12.67 g/m*3 15.3 C 0 km/h
63 26-07-2021 05:10:00 15.3 C 12.54 g/m*3 15.3 C 0 km/h
64 26-07-2021 05:15:00 15.3 C 12.54 g/m*3 15.3 C 0 km/h
65 26-07-2021 05:20:00 15.3 C 12.54 g/m*3 15.3 C 0 km/h
66 26-07-2021 05:25:00 15.4 C 12.74 g/m*3 15.4 C 0 km/h
67 26-07-2021 05:30:00 15.4 C 12.74 g/m*3 15.4 C 0 km/h
68 26-07-2021 05:35:00 15.3 C 12.54 g/m*3 15.3 C 0 km/h
69 26-07-2021 05:40:00 15.3 C 12.54 g/m*3 15.3 C 0 km/h
70 26-07-2021 05:45:00 15.3 C 12.54 g/m*3 15.3 C 0 km/h
71 26-07-2021 05:50:00 15.3 C 12.67 g/m*3 15.3 C 0 km/h
72 26-07-2021 05:55:00 15.3 C 12.67 g/m*3 15.3 C 0 km/h
73 26-07-2021 06:00:00 15.3 C 12.67 g/m*3 15.3 C 0 km/h
74 26-07-2021 06:05:00 15.3 C 12.67 g/m*3 15.3 C 0 km/h
75 26-07-2021 06:10:00 15.3 C 12.67 g/m*3 15.3 C 0 km/h
Sensor: Nr:Datum:Temp:Abs-Feuchte:Windchill:Wind:
Aussen-T/F 76 26-07-2021 06:15:00 15.3 C 12.67 g/m*3 15.3 C 0 km/h
77 26-07-2021 06:20:00 15.3 C 12.67 g/m*3 15.3 C 0 km/h
78 26-07-2021 06:25:00 15.3 C 12.67 g/m*3 15.3 C 0 km/h
79 26-07-2021 06:30:00 15.3 C 12.67 g/m*3 15.3 C 0 km/h
80 26-07-2021 06:35:00 15.3 C 12.67 g/m*3 15.3 C 0 km/h
81 26-07-2021 06:40:00 15.2 C 12.59 g/m*3 15.2 C 0 km/h
82 26-07-2021 06:45:00 15.2 C 12.59 g/m*3 15.2 C 0 km/h
83 26-07-2021 06:50:00 15.2 C 12.59 g/m*3 15.2 C 0 km/h
84 26-07-2021 06:55:00 15.2 C 12.59 g/m*3 15.2 C 0 km/h
85 26-07-2021 07:00:00 15.2 C 12.59 g/m*3 15.2 C 0 km/h
86 26-07-2021 07:05:00 15.2 C 12.59 g/m*3 15.2 C 0 km/h
87 26-07-2021 07:10:00 15.2 C 12.59 g/m*3 15.2 C 0 km/h
88 26-07-2021 07:15:00 15.2 C 12.59 g/m*3 15.2 C 0 km/h
89 26-07-2021 07:20:00 15.3 C 12.67 g/m*3 15.3 C 0 km/h
90 26-07-2021 07:25:00 15.3 C 12.67 g/m*3 15.3 C 0 km/h
91 26-07-2021 07:30:00 15.2 C 12.59 g/m*3 15.2 C 0 km/h
92 26-07-2021 07:35:00 15.2 C 12.59 g/m*3 15.2 C 0 km/h
93 26-07-2021 07:40:00 15.3 C 12.67 g/m*3 15.3 C 0 km/h
94 26-07-2021 07:45:00 15.3 C 12.67 g/m*3 15.3 C 0 km/h
95 26-07-2021 07:50:00 15.4 C 12.74 g/m*3 15.4 C 0 km/h
96 26-07-2021 07:55:00 15.4 C 12.74 g/m*3 15.4 C 0 km/h
97 26-07-2021 08:00:00 15.4 C 12.74 g/m*3 15.4 C 0 km/h
98 26-07-2021 08:05:00 15.6 C 12.9 g/m*3 15.6 C 0 km/h
99 26-07-2021 08:10:00 15.6 C 12.9 g/m*3 15.6 C 0 km/h
100 26-07-2021 08:15:00 15.7 C 12.98 g/m*3 15.7 C 0 km/h
Sensor: Nr:Datum:Temp:Abs-Feuchte:Windchill:Wind:
Aussen-T/F 101 26-07-2021 08:20:00 15.7 C 12.98 g/m*3 15.7 C 1.6 km/h
102 26-07-2021 08:25:00 15.7 C 12.98 g/m*3 15.7 C 1.6 km/h
103 26-07-2021 08:30:00 15.7 C 12.98 g/m*3 15.7 C 1.6 km/h
104 26-07-2021 08:35:00 15.7 C 12.98 g/m*3 15.7 C 1.6 km/h
105 26-07-2021 08:40:00 15.8 C 13.06 g/m*3 15.8 C 0 km/h
106 26-07-2021 08:45:00 15.8 C 13.06 g/m*3 15.8 C 0 km/h
107 26-07-2021 08:50:00 15.8 C 13.06 g/m*3 15.8 C 0 km/h
108 26-07-2021 08:55:00 15.8 C 13.06 g/m*3 15.8 C 0 km/h
109 26-07-2021 09:00:00 15.9 C 13.14 g/m*3 15.9 C 0 km/h
110 26-07-2021 09:05:00 16 C 13.22 g/m*3 16 C 0 km/h
111 26-07-2021 09:10:00 16.1 C 13.3 g/m*3 16.1 C 0 km/h
112 26-07-2021 09:15:00 16.2 C 13.38 g/m*3 16.2 C 0 km/h
113 26-07-2021 09:20:00 16.3 C 13.6 g/m*3 16.3 C 0 km/h
114 26-07-2021 09:25:00 16.4 C 13.68 g/m*3 16.4 C 0 km/h
115 26-07-2021 09:30:00 16.6 C 13.7 g/m*3 16.6 C 0 km/h
116 26-07-2021 09:35:00 16.8 C 14.01 g/m*3 16.8 C 0 km/h
117 26-07-2021 09:40:00 16.9 C 14.1 g/m*3 16.9 C 0 km/h
118 26-07-2021 09:45:00 17.1 C 14.27 g/m*3 17.1 C 0 km/h
119 26-07-2021 09:50:00 17.2 C 14.35 g/m*3 17.2 C 0 km/h
120 26-07-2021 09:55:00 17.4 C 14.52 g/m*3 17.4 C 0 km/h
121 26-07-2021 10:00:00 17.6 C 14.7 g/m*3 17.6 C 0 km/h
122 26-07-2021 10:05:00 17.7 C 14.79 g/m*3 17.7 C 0 km/h
123 26-07-2021 10:10:00 17.8 C 14.87 g/m*3 17.8 C 1.6 km/h
124 26-07-2021 10:15:00 17.9 C 14.96 g/m*3 17.9 C 0 km/h
125 26-07-2021 10:20:00 18 C 15.05 g/m*3 18 C 8.1 km/h
Sensor: Nr:Datum:Temp:Abs-Feuchte:Windchill:Wind:
Aussen-T/F 126 26-07-2021 10:25:00 18.2 C 15.23 g/m*3 18.2 C 8.1 km/h
127 26-07-2021 10:30:00 18.4 C 15.26 g/m*3 18.4 C 8.1 km/h
128 26-07-2021 10:35:00 18.6 C 15.44 g/m*3 18.6 C 9.7 km/h
129 26-07-2021 10:40:00 18.9 C 15.55 g/m*3 18.9 C 1.6 km/h
130 26-07-2021 10:45:00 19.1 C 15.57 g/m*3 19.1 C 3.2 km/h
131 26-07-2021 10:50:00 19.1 C 15.25 g/m*3 19.1 C 8.1 km/h
132 26-07-2021 10:55:00 19.3 C 15.43 g/m*3 19.3 C 8.1 km/h
133 26-07-2021 11:00:00 19.6 C 15.36 g/m*3 19.6 C 4.8 km/h
134 26-07-2021 11:05:00 19.9 C 15.12 g/m*3 19.9 C 9.7 km/h
135 26-07-2021 11:10:00 20.3 C 15.13 g/m*3 20.3 C 14.5 km/h
136 26-07-2021 11:15:00 20.6 C 14.86 g/m*3 20.6 C 9.7 km/h
137 26-07-2021 11:20:00 20.8 C 15.03 g/m*3 20.8 C 12.9 km/h
138 26-07-2021 11:25:00 21 C 14.65 g/m*3 21 C 12.9 km/h
139 26-07-2021 11:30:00 21.2 C 14.64 g/m*3 21.2 C 12.9 km/h
140 26-07-2021 11:35:00 21.3 C 14.91 g/m*3 21.3 C 8.1 km/h
141 26-07-2021 11:40:00 21.3 C 15.1 g/m*3 21.3 C 3.2 km/h
142 26-07-2021 11:45:00 21.3 C 15.1 g/m*3 21.3 C 4.8 km/h
143 26-07-2021 11:50:00 21.3 C 14.91 g/m*3 21.3 C 11.3 km/h
144 26-07-2021 11:55:00 21.4 C 14.62 g/m*3 21.4 C 9.7 km/h
145 26-07-2021 12:00:00 21.6 C 14.79 g/m*3 21.6 C 11.3 km/h
146 26-07-2021 12:05:00 21.9 C 14.86 g/m*3 21.9 C 12.9 km/h
147 26-07-2021 12:10:00 22.1 C 14.84 g/m*3 22.1 C 11.3 km/h
148 26-07-2021 12:15:00 22.2 C 15.71 g/m*3 22.2 C 4.8 km/h
149 26-07-2021 12:20:00 22.2 C 15.51 g/m*3 22.2 C 11.3 km/h
150 26-07-2021 12:25:00 22.1 C 15.81 g/m*3 22.1 C 3.2 km/h
Sensor: Nr:Datum:Temp:Abs-Feuchte:Windchill:Wind:
Aussen-T/F 151 26-07-2021 12:30:00 22.1 C 15.23 g/m*3 22.1 C 8.1 km/h
152 26-07-2021 12:35:00 22.1 C 15.03 g/m*3 22.1 C 11.3 km/h
153 26-07-2021 12:40:00 22.3 C 15.2 g/m*3 22.3 C 12.9 km/h
154 26-07-2021 12:45:00 22.4 C 14.7 g/m*3 22.4 C 12.9 km/h
155 26-07-2021 12:50:00 22.6 C 14.87 g/m*3 22.6 C 11.3 km/h
156 26-07-2021 12:55:00 22.7 C 14.55 g/m*3 22.7 C 12.9 km/h
157 26-07-2021 13:00:00 22.9 C 14.92 g/m*3 22.9 C 9.7 km/h
158 26-07-2021 13:05:00 22.9 C 14.92 g/m*3 22.9 C 11.3 km/h
159 26-07-2021 13:10:00 22.9 C 14.71 g/m*3 22.9 C 12.9 km/h
160 26-07-2021 13:15:00 23.1 C 14.88 g/m*3 23.1 C 14.5 km/h
161 26-07-2021 13:20:00 23.1 C 14.47 g/m*3 23.1 C 16.1 km/h
162 26-07-2021 13:25:00 22.9 C 14.51 g/m*3 22.9 C 14.5 km/h
163 26-07-2021 13:30:00 22.9 C 14.31 g/m*3 22.9 C 11.3 km/h
164 26-07-2021 13:35:00 22.9 C 14.51 g/m*3 22.9 C 14.5 km/h
165 26-07-2021 13:40:00 23 C 14.59 g/m*3 23 C 19.3 km/h
166 26-07-2021 13:45:00 23.1 C 14.26 g/m*3 23.1 C 14.5 km/h
167 26-07-2021 13:50:00 23.2 C 14.14 g/m*3 23.2 C 14.5 km/h
168 26-07-2021 13:55:00 23.3 C 14.43 g/m*3 23.3 C 16.1 km/h
169 26-07-2021 14:00:00 23.4 C 14.3 g/m*3 23.4 C 14.5 km/h
170 26-07-2021 14:05:00 23.6 C 14.25 g/m*3 23.6 C 17.7 km/h
171 26-07-2021 14:10:00 23.6 C 14.04 g/m*3 23.6 C 14.5 km/h
172 26-07-2021 14:15:00 23.7 C 14.33 g/m*3 23.7 C 12.9 km/h
173 26-07-2021 14:20:00 23.8 C 14.2 g/m*3 23.8 C 9.7 km/h
174 26-07-2021 14:25:00 23.9 C 14.49 g/m*3 23.9 C 11.3 km/h
175 26-07-2021 14:30:00 24 C 14.58 g/m*3 24 C 8.1 km/h
Sensor: Nr:Datum:Temp:Abs-Feuchte:Windchill:Wind:
Aussen-T/F 176 26-07-2021 14:35:00 24.1 C 14 g/m*3 24.1 C 16.1 km/h
177 26-07-2021 14:40:00 24.2 C 14.74 g/m*3 24.2 C 16.1 km/h
178 26-07-2021 14:45:00 24.3 C 14.83 g/m*3 24.3 C 9.7 km/h
179 26-07-2021 14:50:00 24.4 C 14.47 g/m*3 24.4 C 17.7 km/h
180 26-07-2021 14:55:00 24.6 C 14.85 g/m*3 24.6 C 14.5 km/h
181 26-07-2021 15:00:00 24.7 C 14.94 g/m*3 24.7 C 19.3 km/h
182 26-07-2021 15:05:00 24.8 C 14.57 g/m*3 24.8 C 19.3 km/h
183 26-07-2021 15:10:00 25.1 C 14.12 g/m*3 25.1 C 19.3 km/h
184 26-07-2021 15:15:00 25.2 C 14.43 g/m*3 25.2 C 11.3 km/h
185 26-07-2021 15:20:00 25.3 C 14.28 g/m*3 25.3 C 11.3 km/h
186 26-07-2021 15:25:00 25.4 C 14.6 g/m*3 25.4 C 14.5 km/h
187 26-07-2021 15:30:00 25.6 C 14.28 g/m*3 25.6 C 19.3 km/h
188 26-07-2021 15:35:00 25.7 C 13.89 g/m*3 25.7 C 16.1 km/h
189 26-07-2021 15:40:00 25.9 C 14.53 g/m*3 25.9 C 11.3 km/h
190 26-07-2021 15:45:00 26.3 C 14.36 g/m*3 26.3 C 19.3 km/h
191 26-07-2021 15:50:00 26.6 C 14.35 g/m*3 26.6 C 11.3 km/h
192 26-07-2021 15:55:00 26.7 C 13.92 g/m*3 26.7 C 19.3 km/h
193 26-07-2021 16:00:00 26.2 C 14.77 g/m*3 26.2 C 12.9 km/h
194 26-07-2021 16:05:00 25.5 C 13.49 g/m*3 25.5 C 9.7 km/h
195 26-07-2021 16:10:00 25.2 C 13.97 g/m*3 25.2 C 9.7 km/h
196 26-07-2021 16:15:00 25.6 C 14.28 g/m*3 25.6 C 12.9 km/h
197 26-07-2021 16:20:00 25.8 C 14.45 g/m*3 25.8 C 11.3 km/h
198 26-07-2021 16:25:00 25.5 C 14.44 g/m*3 25.5 C 11.3 km/h
199 26-07-2021 16:30:00 25.2 C 14.9 g/m*3 25.2 C 6.4 km/h
200 26-07-2021 16:35:00 25.2 C 15.83 g/m*3 25.2 C 6.4 km/h
Sensor: Nr:Datum:Temp:Abs-Feuchte:Windchill:Wind:
Aussen-T/F 201 26-07-2021 16:40:00 25.6 C 15 g/m*3 25.6 C 8.1 km/h
202 26-07-2021 16:45:00 26.2 C 14.28 g/m*3 26.2 C 12.9 km/h
203 26-07-2021 16:50:00 26.6 C 14.85 g/m*3 26.6 C 6.4 km/h
204 26-07-2021 16:55:00 26.9 C 14.59 g/m*3 26.9 C 14.5 km/h
205 26-07-2021 17:00:00 26.8 C 14.51 g/m*3 26.8 C 17.7 km/h
206 26-07-2021 17:05:00 26.9 C 15.1 g/m*3 26.9 C 6.4 km/h
207 26-07-2021 17:10:00 27.2 C 14.83 g/m*3 27.2 C 8.1 km/h
208 26-07-2021 17:15:00 27 C 14.93 g/m*3 27 C 6.4 km/h
209 26-07-2021 17:20:00 27 C 14.15 g/m*3 27 C 11.3 km/h
210 26-07-2021 17:25:00 27.1 C 14.75 g/m*3 27.1 C 14.5 km/h
211 26-07-2021 17:30:00 26.7 C 14.17 g/m*3 26.7 C 11.3 km/h
212 26-07-2021 17:35:00 26.3 C 15.1 g/m*3 26.3 C 0 km/h
213 26-07-2021 17:40:00 25.8 C 15.89 g/m*3 25.8 C 1.6 km/h
214 26-07-2021 17:45:00 25.6 C 14.28 g/m*3 25.6 C 9.7 km/h
215 26-07-2021 17:50:00 25.9 C 14.53 g/m*3 25.9 C 17.7 km/h
216 26-07-2021 17:55:00 26.3 C 14.85 g/m*3 26.3 C 14.5 km/h
217 26-07-2021 18:00:00 26.5 C 14.77 g/m*3 26.5 C 12.9 km/h
218 26-07-2021 18:05:00 26.5 C 14.27 g/m*3 26.5 C 20.9 km/h
219 26-07-2021 18:10:00 26.5 C 14.52 g/m*3 26.5 C 14.5 km/h
220 26-07-2021 18:15:00 26.7 C 14.43 g/m*3 26.7 C 11.3 km/h
221 26-07-2021 18:20:00 26.7 C 14.17 g/m*3 26.7 C 11.3 km/h
222 26-07-2021 18:25:00 26.7 C 14.17 g/m*3 26.7 C 12.9 km/h
223 26-07-2021 18:30:00 26.4 C 13.94 g/m*3 26.4 C 14.5 km/h
224 26-07-2021 18:35:00 26.2 C 14.52 g/m*3 26.2 C 8.1 km/h
225 26-07-2021 18:40:00 26.3 C 14.61 g/m*3 26.3 C 9.7 km/h
Sensor: Nr:Datum:Temp:Abs-Feuchte:Windchill:Wind:
Aussen-T/F 226 26-07-2021 18:45:00 26.3 C 14.61 g/m*3 26.3 C 11.3 km/h
227 26-07-2021 18:50:00 26.4 C 14.19 g/m*3 26.4 C 11.3 km/h
228 26-07-2021 18:55:00 26.5 C 13.77 g/m*3 26.5 C 16.1 km/h
229 26-07-2021 19:00:00 26.3 C 13.62 g/m*3 26.3 C 14.5 km/h
230 26-07-2021 19:05:00 26.1 C 13.46 g/m*3 26.1 C 11.3 km/h
231 26-07-2021 19:10:00 25.8 C 13.24 g/m*3 25.8 C 11.3 km/h
232 26-07-2021 19:15:00 25.4 C 14.36 g/m*3 25.4 C 6.4 km/h
233 26-07-2021 19:20:00 25.1 C 12.96 g/m*3 25.1 C 17.7 km/h
234 26-07-2021 19:25:00 24.6 C 13.73 g/m*3 24.6 C 9.7 km/h
235 26-07-2021 19:30:00 24.3 C 13.94 g/m*3 24.3 C 8.1 km/h
236 26-07-2021 19:35:00 24.1 C 13.35 g/m*3 24.1 C 9.7 km/h
237 26-07-2021 19:40:00 23.8 C 14.63 g/m*3 23.8 C 0 km/h
238 26-07-2021 19:45:00 23.6 C 14.25 g/m*3 23.6 C 1.6 km/h
239 26-07-2021 19:50:00 23.4 C 14.93 g/m*3 23.4 C 0 km/h
240 26-07-2021 19:55:00 23.2 C 15.18 g/m*3 23.2 C 0 km/h
241 26-07-2021 20:00:00 23 C 15.21 g/m*3 23 C 4.8 km/h
242 26-07-2021 20:05:00 22.8 C 14.83 g/m*3 22.8 C 4.8 km/h
243 26-07-2021 20:10:00 22.6 C 14.26 g/m*3 22.6 C 4.8 km/h
244 26-07-2021 20:15:00 22.5 C 13.98 g/m*3 22.5 C 4.8 km/h
245 26-07-2021 20:20:00 22.5 C 14.38 g/m*3 22.5 C 4.8 km/h
246 26-07-2021 20:25:00 22.4 C 14.5 g/m*3 22.4 C 4.8 km/h
247 26-07-2021 20:30:00 22.3 C 14.61 g/m*3 22.3 C 3.2 km/h
248 26-07-2021 20:35:00 22.2 C 14.72 g/m*3 22.2 C 4.8 km/h
249 26-07-2021 20:40:00 21.9 C 14.47 g/m*3 21.9 C 4.8 km/h
250 26-07-2021 20:45:00 21.7 C 14.88 g/m*3 21.7 C 1.6 km/h
Sensor: Nr:Datum:Temp:Abs-Feuchte:Windchill:Wind:
Aussen-T/F 251 26-07-2021 20:50:00 21.4 C 14.62 g/m*3 21.4 C 6.4 km/h
252 26-07-2021 20:55:00 21.2 C 14.64 g/m*3 21.2 C 6.4 km/h
253 26-07-2021 21:00:00 21 C 14.65 g/m*3 21 C 4.8 km/h
254 26-07-2021 21:05:00 20.8 C 14.67 g/m*3 20.8 C 4.8 km/h
255 26-07-2021 21:10:00 20.6 C 14.5 g/m*3 20.6 C 0 km/h
256 26-07-2021 21:15:00 20.4 C 14.51 g/m*3 20.4 C 0 km/h
257 26-07-2021 21:20:00 20.3 C 14.6 g/m*3 20.3 C 4.8 km/h
258 26-07-2021 21:25:00 20.2 C 14.69 g/m*3 20.2 C 4.8 km/h
259 26-07-2021 21:30:00 20.1 C 14.6 g/m*3 20.1 C 4.8 km/h
260 26-07-2021 21:35:00 19.9 C 14.43 g/m*3 19.9 C 4.8 km/h
261 26-07-2021 21:40:00 19.8 C 14.35 g/m*3 19.8 C 4.8 km/h
262 26-07-2021 21:45:00 19.8 C 14.52 g/m*3 19.8 C 6.4 km/h
263 26-07-2021 21:50:00 19.7 C 14.26 g/m*3 19.7 C 4.8 km/h
264 26-07-2021 21:55:00 19.6 C 14.18 g/m*3 19.6 C 3.2 km/h
265 26-07-2021 22:00:00 19.6 C 14.35 g/m*3 19.6 C 4.8 km/h
266 26-07-2021 22:05:00 19.4 C 14.18 g/m*3 19.4 C 3.2 km/h
267 26-07-2021 22:10:00 19.3 C 14.1 g/m*3 19.3 C 4.8 km/h
268 26-07-2021 22:15:00 19.3 C 14.26 g/m*3 19.3 C 4.8 km/h
269 26-07-2021 22:20:00 19.2 C 14.18 g/m*3 19.2 C 1.6 km/h
270 26-07-2021 22:25:00 19.1 C 14.1 g/m*3 19.1 C 3.2 km/h
271 26-07-2021 22:30:00 19 C 14.01 g/m*3 19 C 4.8 km/h
272 26-07-2021 22:35:00 18.9 C 13.93 g/m*3 18.9 C 4.8 km/h
273 26-07-2021 22:40:00 18.8 C 13.85 g/m*3 18.8 C 4.8 km/h
274 26-07-2021 22:45:00 18.8 C 13.85 g/m*3 18.8 C 3.2 km/h
275 26-07-2021 22:50:00 18.8 C 13.85 g/m*3 18.8 C 6.4 km/h
Sensor: Nr:Datum:Temp:Abs-Feuchte:Windchill:Wind:
Aussen-T/F 276 26-07-2021 22:55:00 18.8 C 13.85 g/m*3 18.8 C 3.2 km/h
277 26-07-2021 23:00:00 18.7 C 13.45 g/m*3 18.7 C 8.1 km/h
278 26-07-2021 23:05:00 18.7 C 13.61 g/m*3 18.7 C 4.8 km/h
279 26-07-2021 23:10:00 18.7 C 13.61 g/m*3 18.7 C 1.6 km/h
280 26-07-2021 23:15:00 18.7 C 13.77 g/m*3 18.7 C 4.8 km/h
281 26-07-2021 23:20:00 18.7 C 13.61 g/m*3 18.7 C 3.2 km/h
282 26-07-2021 23:25:00 18.7 C 13.77 g/m*3 18.7 C 1.6 km/h
283 26-07-2021 23:30:00 18.6 C 13.53 g/m*3 18.6 C 1.6 km/h
284 26-07-2021 23:35:00 18.6 C 13.69 g/m*3 18.6 C 1.6 km/h
285 26-07-2021 23:40:00 18.6 C 13.69 g/m*3 18.6 C 0 km/h
286 26-07-2021 23:45:00 18.6 C 13.69 g/m*3 18.6 C 0 km/h
287 26-07-2021 23:50:00 18.5 C 13.61 g/m*3 18.5 C 3.2 km/h
288 26-07-2021 23:55:00 18.4 C 13.53 g/m*3 18.4 C 3.2 km/h

Legende:
   Min
   Max


Maximal/Minimal-Werte vom 26.07.2021 - 26.07.2021

Sensor Min Max Avg
Temp
(Aussen-T/F)
15 °C
26-07-2021  04:30:00
27.2 °C
26-07-2021  17:10:00
19.75 °C
Abs-Feuchte
(Aussen-T/F)
12.31 g/m*3
26-07-2021  04:30:00
15.89 g/m*3
26-07-2021  17:40:00
13.76 g/m*3
Windchill
(Aussen-T/F)
15 C
26-07-2021  04:30:00
27.2 C
26-07-2021  17:10:00
19.68 C

Die Daten stammen von einer Davis Vantage Pro 2 Wetter-Station und werden unter Linux mit der Software wview2wettercgi und aufbereitet. Alle Angaben erfolgen ohne Gewähr für ihre Vollständigkeit oder Richtigkeit.
Kontakt: Rainer Krienke krienke@uni-koblenz.de . Meine Webseiten an der Uni Koblenz oder privat.
Version: $Revision: 0.78 $